Language Proficiency English  Level  4 & 5 & 6

 

Flugwetter Augsburg

[source: ADDS]
METAR
EDMA 150950Z 29011KT 240V320 9999 -RA FEW035 BKN041 BKN065 17/12 Q1015 =
TAF EDMA 150800Z 1509/1518 28005KT CAVOK TEMPO 1509/1518 SHRA BKN025CB PROB30 TEMPO 1512/1518 4500 TSRA BKN012CB
TAF
TAF EDMA 150800Z 1509/1518 28005KT CAVOK TEMPO 1509/1518 SHRA BKN025CB PROB30 TEMPO 1512/1518 4500 TSRA BKN012CB =
Cookies erleichtern die Bereitstellung unserer Dienste. Mit der Nutzung unserer Dienste erklären Sie sich damit einverstanden, dass wir Cookies verwenden.
Weitere Informationen Ok